Swift — WDC6885 — position and weather

sailwx.info

Track history (hours):
 
Tides and Currents Weather Stations Pressure Air Temp Water Temp Dewpoint Dewpoint Depression Visibility Wind Speed Wind Dir Waves Ship Positions

Swift

Owner: Mohawk Marine, LLC, Newington, CT. More information available from US FCC via Universal Licensing System and Coast Guard Vessel Documentation Center.

Last reported at 2015-Aug-28 16:27 UTC. Time now 2015-Aug-30 12:02 UTC.
Position N 41°13' W 072°57'.

; draft 2.5 m.

Type: Towing. MMSI: 367062680.

Date/timePositionNaut miles runAvg speedWind from/ knotsBaromVisibWave heightAir tempDewpointWater temp
2015-Aug-28 16:27N 41°13' W 072°57'0 0.0
2015-Aug-28 15:33N 41°13' W 072°57'1 0.6
2015-Aug-28 14:08N 41°14' W 072°56'0 0.3
2015-Aug-28 13:33N 41°14' W 072°56'3 2.8
2015-Aug-28 12:33N 41°16' W 072°55'3 1.2
2015-Aug-28 10:20N 41°14' W 072°56'1 0.0
2015-Aug-27 11:33N 41°14' W 072°57'1 0.0
2015-Aug-26 19:04N 41°14' W 072°56'1 1.3
2015-Aug-26 18:16N 41°14' W 072°57'1 0.8
2015-Aug-26 17:19N 41°14' W 072°56'0 0.1
2015-Aug-26 12:16N 41°14' W 072°56'1 0.7
2015-Aug-26 11:33N 41°14' W 072°57'0 0.0
2015-Aug-25 18:30N 41°14' W 072°56'0 0.0
2015-Aug-25 14:26N 41°14' W 072°56'0 0.1
2015-Aug-25 13:31N 41°14' W 072°56'3 2.9
2015-Aug-25 12:33N 41°16' W 072°55'3 1.2
2015-Aug-25 10:24N 41°14' W 072°56'0 0.0
2015-Aug-24 19:20N 41°14' W 072°56'1 1.0
2015-Aug-24 18:23N 41°14' W 072°57'0 0.1
2015-Aug-24 17:34N 41°13' W 072°57'0 0.0
2015-Aug-24 16:32N 41°13' W 072°57'4 1.0
2015-Aug-24 12:29N 41°17' W 072°55'  
2015-Aug-21 19:11N 41°14' W 072°56'1 0.6
2015-Aug-21 17:26N 41°13' W 072°57'0 0.0
2015-Aug-21 16:33N 41°13' W 072°57'0 0.0
2015-Aug-21 15:33N 41°13' W 072°57'1 1.0
2015-Aug-21 14:33N 41°14' W 072°56'0 0.1
2015-Aug-21 13:33N 41°14' W 072°56'2 2.2
2015-Aug-21 12:33N 41°16' W 072°55'2 2.2
2015-Aug-21 11:31N 41°18' W 072°54'5 4.7
2015-Aug-21 10:33N 41°14' W 072°56'0 0.0
2015-Aug-20 19:33N 41°14' W 072°56'1 0.6
2015-Aug-20 18:32N 41°14' W 072°57'0 0.2
2015-Aug-20 17:32N 41°13' W 072°57'0 0.0
2015-Aug-20 16:33N 41°14' W 072°57'0 0.0
2015-Aug-20 15:24N 41°14' W 072°57'1 0.5
2015-Aug-20 13:15N 41°14' W 072°56'  
Track history (hours):
 
Tides and Currents Weather Stations Pressure Air Temp Water Temp Dewpoint Dewpoint Depression Visibility Wind Speed Wind Dir Waves Ship Positions

Swift

Owner: Mohawk Marine, LLC, Newington, CT. More information available from US FCC via Universal Licensing System and Coast Guard Vessel Documentation Center.

Last reported at 2015-Aug-28 16:27 UTC. Time now 2015-Aug-30 12:02 UTC.
Position N 41°13' W 072°57'.

; draft 2.5 m.

Type: Towing. MMSI: 367062680.

Date/timePositionNaut miles runAvg speedWind from/ knotsBaromVisibWave heightAir tempDewpointWater temp
2015-Aug-28 16:27N 41°13' W 072°57'0 0.0
2015-Aug-28 15:33N 41°13' W 072°57'1 0.6
2015-Aug-28 14:08N 41°14' W 072°56'0 0.3
2015-Aug-28 13:33N 41°14' W 072°56'3 2.8
2015-Aug-28 12:33N 41°16' W 072°55'3 1.2
2015-Aug-28 10:20N 41°14' W 072°56'1 0.0
2015-Aug-27 11:33N 41°14' W 072°57'1 0.0
2015-Aug-26 19:04N 41°14' W 072°56'1 1.3
2015-Aug-26 18:16N 41°14' W 072°57'1 0.8
2015-Aug-26 17:19N 41°14' W 072°56'0 0.1
2015-Aug-26 12:16N 41°14' W 072°56'1 0.7
2015-Aug-26 11:33N 41°14' W 072°57'0 0.0
2015-Aug-25 18:30N 41°14' W 072°56'0 0.0
2015-Aug-25 14:26N 41°14' W 072°56'0 0.1
2015-Aug-25 13:31N 41°14' W 072°56'3 2.9
2015-Aug-25 12:33N 41°16' W 072°55'3 1.2
2015-Aug-25 10:24N 41°14' W 072°56'0 0.0
2015-Aug-24 19:20N 41°14' W 072°56'1 1.0
2015-Aug-24 18:23N 41°14' W 072°57'0 0.1
2015-Aug-24 17:34N 41°13' W 072°57'0 0.0
2015-Aug-24 16:32N 41°13' W 072°57'4 1.0
2015-Aug-24 12:29N 41°17' W 072°55'  
2015-Aug-21 19:11N 41°14' W 072°56'1 0.6
2015-Aug-21 17:26N 41°13' W 072°57'0 0.0
2015-Aug-21 16:33N 41°13' W 072°57'0 0.0
2015-Aug-21 15:33N 41°13' W 072°57'1 1.0
2015-Aug-21 14:33N 41°14' W 072°56'0 0.1
2015-Aug-21 13:33N 41°14' W 072°56'2 2.2
2015-Aug-21 12:33N 41°16' W 072°55'2 2.2
2015-Aug-21 11:31N 41°18' W 072°54'5 4.7
2015-Aug-21 10:33N 41°14' W 072°56'0 0.0
2015-Aug-20 19:33N 41°14' W 072°56'1 0.6
2015-Aug-20 18:32N 41°14' W 072°57'0 0.2
2015-Aug-20 17:32N 41°13' W 072°57'0 0.0
2015-Aug-20 16:33N 41°14' W 072°57'0 0.0
2015-Aug-20 15:24N 41°14' W 072°57'1 0.5
2015-Aug-20 13:15N 41°14' W 072°56'  

Dump ship's entire track history